Time;durP1;ratioP1;P1;durP2;ratioP2;P2;SDS_P1;SDS_P2;PMS_P1;PMS_P2;Temp;Humidity;BMP_temperature;BMP_pressure;BME280_temperature;BME280_humidity;BME280_pressure;Samples;Min_cycle;Max_cycle;Signal;HPM_P1;HPM_P2
2021/06/14 00:00:12;;;;;;;0.00;0.00;;;14.70;99.90;;;;;;5087809;28;20205;-70
2021/06/14 00:02:40;;;;;;;0.00;0.00;;;14.70;99.90;;;;;;5089166;28;20206;-69
2021/06/14 00:05:12;;;;;;;0.00;0.00;;;14.70;99.90;;;;;;5088996;28;20201;-67
2021/06/14 00:07:40;;;;;;;0.00;0.00;;;14.60;99.90;;;;;;5086171;28;20230;-68
2021/06/14 00:10:09;;;;;;;0.00;0.00;;;14.60;99.90;;;;;;5087259;28;20194;-67
2021/06/14 00:12:37;;;;;;;0.00;0.00;;;14.60;99.90;;;;;;5085950;28;20203;-69
2021/06/14 00:15:06;;;;;;;0.00;0.00;;;14.50;99.90;;;;;;5086952;28;20868;-70
2021/06/14 00:17:33;;;;;;;0.00;0.00;;;14.50;99.90;;;;;;5087680;28;20198;-66
2021/06/14 00:20:00;;;;;;;0.00;0.00;;;14.50;99.90;;;;;;5088144;28;20240;-67
2021/06/14 00:22:27;;;;;;;0.00;0.00;;;14.40;99.90;;;;;;5086873;28;20604;-66
2021/06/14 00:24:56;;;;;;;0.50;0.50;;;14.40;99.90;;;;;;5091751;28;20233;-70
2021/06/14 00:27:23;;;;;;;0.00;0.00;;;14.40;99.90;;;;;;5090786;28;20210;-68
2021/06/14 00:29:50;;;;;;;0.00;0.00;;;14.40;99.90;;;;;;5091593;28;20205;-69
2021/06/14 00:32:17;;;;;;;0.00;0.00;;;14.40;99.90;;;;;;5090158;28;20208;-67
2021/06/14 00:34:44;;;;;;;0.00;0.00;;;14.40;99.90;;;;;;5089066;28;20683;-74
2021/06/14 00:37:11;;;;;;;0.30;0.30;;;14.40;99.90;;;;;;5092792;28;20209;-70
2021/06/14 00:39:38;;;;;;;0.00;0.00;;;14.40;99.90;;;;;;5089581;28;20202;-66
2021/06/14 00:42:07;;;;;;;0.30;0.30;;;14.40;99.90;;;;;;5089822;27;20294;-66
2021/06/14 00:44:34;;;;;;;0.00;0.00;;;14.50;99.90;;;;;;5091017;28;20201;-71
2021/06/14 00:47:01;;;;;;;0.00;0.00;;;14.50;99.90;;;;;;5089774;28;20198;-66
2021/06/14 00:49:28;;;;;;;0.00;0.00;;;14.50;99.90;;;;;;5091179;28;20255;-66
2021/06/14 00:51:55;;;;;;;0.53;0.50;;;14.50;99.90;;;;;;5090781;28;20198;-66
2021/06/14 00:54:22;;;;;;;0.77;0.77;;;14.60;99.90;;;;;;5089844;28;20694;-70
2021/06/14 00:56:49;;;;;;;0.00;0.00;;;14.70;99.90;;;;;;5093211;28;20293;-66
2021/06/14 00:59:18;;;;;;;0.30;0.30;;;14.60;99.90;;;;;;5091003;28;20206;-71
2021/06/14 01:01:45;;;;;;;0.20;0.20;;;14.70;99.90;;;;;;5091177;27;20272;-69
2021/06/14 01:04:12;;;;;;;0.00;0.00;;;14.60;99.90;;;;;;5093030;28;20206;-66
2021/06/14 01:06:39;;;;;;;0.00;0.00;;;14.60;99.90;;;;;;5089218;28;20659;-67
2021/06/14 01:09:06;;;;;;;0.00;0.00;;;14.60;99.90;;;;;;5089176;28;20632;-67
2021/06/14 01:11:39;;;;;;;0.00;0.00;;;14.60;99.90;;;;;;5090242;28;20292;-67
2021/06/14 01:14:14;;;;;;;0.00;0.00;;;14.50;99.90;;;;;;5091210;28;20221;-67
2021/06/14 01:16:51;;;;;;;0.00;0.00;;;14.50;99.90;;;;;;5091914;28;20190;-66
2021/06/14 01:19:36;;;;;;;0.00;0.00;;;14.40;99.90;;;;;;5089516;28;20198;-66
2021/06/14 01:22:21;;;;;;;0.00;0.00;;;14.40;99.90;;;;;;5090495;28;20197;-67
2021/06/14 01:24:59;;;;;;;0.00;0.00;;;14.40;99.90;;;;;;5095453;28;20191;-66
2021/06/14 01:27:43;;;;;;;0.10;0.10;;;14.40;99.90;;;;;;5088318;28;20199;-68
2021/06/14 01:30:15;;;;;;;0.10;0.10;;;14.30;99.90;;;;;;5090554;28;20190;-66
2021/06/14 01:32:43;;;;;;;0.00;0.00;;;14.30;99.90;;;;;;5089577;28;20259;-68
2021/06/14 01:35:14;;;;;;;0.00;0.00;;;14.30;99.90;;;;;;5091627;28;20280;-67
2021/06/14 01:37:44;;;;;;;0.00;0.00;;;14.30;99.90;;;;;;5088668;28;20197;-66
2021/06/14 01:40:14;;;;;;;0.00;0.00;;;14.30;99.90;;;;;;5088289;28;20254;-69
2021/06/14 01:42:44;;;;;;;0.73;0.73;;;14.30;99.90;;;;;;5090209;28;20640;-67
2021/06/14 01:45:12;;;;;;;0.00;0.00;;;14.30;99.90;;;;;;5090021;28;20194;-66
2021/06/14 01:47:40;;;;;;;0.00;0.00;;;14.20;99.90;;;;;;5089833;28;20647;-68
2021/06/14 01:50:08;;;;;;;0.00;0.00;;;14.20;99.90;;;;;;5092965;28;22370;-66
2021/06/14 01:52:35;;;;;;;0.00;0.00;;;14.20;99.90;;;;;;5088695;28;20662;-65
2021/06/14 01:55:03;;;;;;;0.00;0.00;;;14.10;99.90;;;;;;5092651;28;20283;-69
2021/06/14 01:57:31;;;;;;;0.00;0.00;;;14.10;99.90;;;;;;5089850;28;20256;-69
2021/06/14 02:00:00;;;;;;;0.00;0.00;;;14.10;99.90;;;;;;5088776;28;20205;-69
2021/06/14 02:02:28;;;;;;;0.00;0.00;;;14.00;99.90;;;;;;5088755;28;20199;-67
2021/06/14 02:04:56;;;;;;;0.00;0.00;;;14.00;99.90;;;;;;5089163;28;20193;-69
2021/06/14 02:07:24;;;;;;;0.00;0.00;;;14.00;99.90;;;;;;5088147;28;20260;-69
2021/06/14 02:09:53;;;;;;;0.00;0.00;;;14.00;99.90;;;;;;5091087;28;20292;-69
2021/06/14 02:12:20;;;;;;;0.00;0.00;;;13.90;99.90;;;;;;5089326;28;20193;-67
2021/06/14 02:14:47;;;;;;;0.00;0.00;;;13.90;99.90;;;;;;5091509;28;20221;-69
2021/06/14 02:17:19;;;;;;;0.00;0.00;;;13.90;99.90;;;;;;5088880;28;20239;-66
2021/06/14 02:19:48;;;;;;;0.00;0.00;;;13.80;99.90;;;;;;5090894;28;20194;-68
2021/06/14 02:22:17;;;;;;;0.00;0.00;;;13.80;99.90;;;;;;5092558;28;20194;-67
2021/06/14 02:24:44;;;;;;;0.00;0.00;;;13.80;99.90;;;;;;5089815;28;20235;-69
2021/06/14 02:27:13;;;;;;;0.03;0.03;;;13.70;99.90;;;;;;5091534;28;20234;-68
2021/06/14 02:29:40;;;;;;;0.00;0.00;;;13.70;99.90;;;;;;5091252;28;20205;-69
2021/06/14 02:32:08;;;;;;;0.00;0.00;;;13.70;99.90;;;;;;5089418;28;20339;-70
2021/06/14 02:34:38;;;;;;;0.00;0.00;;;13.70;99.90;;;;;;5087588;28;20214;-71
2021/06/14 02:37:06;;;;;;;0.00;0.00;;;13.70;99.90;;;;;;5091224;28;20210;-71
2021/06/14 02:39:34;;;;;;;0.13;0.13;;;13.70;99.90;;;;;;5087791;28;20264;-67
2021/06/14 02:42:02;;;;;;;0.10;0.10;;;13.70;99.90;;;;;;5089307;28;20243;-73
2021/06/14 02:44:30;;;;;;;0.00;0.00;;;13.70;99.90;;;;;;5087946;28;20202;-70
2021/06/14 02:47:01;;;;;;;0.00;0.00;;;13.60;99.90;;;;;;5090004;28;20198;-69
2021/06/14 02:49:30;;;;;;;0.00;0.00;;;13.60;99.90;;;;;;5089671;28;20250;-66
2021/06/14 02:51:59;;;;;;;0.00;0.00;;;13.50;99.90;;;;;;5089893;28;20190;-65
2021/06/14 02:54:32;;;;;;;0.00;0.00;;;13.50;99.90;;;;;;5087033;28;20229;-66
2021/06/14 02:57:02;;;;;;;0.00;0.00;;;13.40;99.90;;;;;;5091828;28;20246;-67
2021/06/14 02:59:30;;;;;;;0.00;0.00;;;13.40;99.90;;;;;;5089097;28;20709;-67
2021/06/14 03:01:57;;;;;;;0.00;0.00;;;13.40;99.90;;;;;;5087377;28;20202;-68
2021/06/14 03:04:26;;;;;;;0.00;0.00;;;13.40;99.90;;;;;;5086879;28;20204;-68
2021/06/14 03:06:54;;;;;;;0.00;0.00;;;13.40;99.90;;;;;;5089322;28;21013;-68
2021/06/14 03:09:23;;;;;;;0.00;0.00;;;13.40;99.90;;;;;;5087649;28;20296;-71
2021/06/14 03:11:52;;;;;;;0.00;0.00;;;13.40;99.90;;;;;;5089180;28;20221;-65
2021/06/14 03:14:20;;;;;;;0.00;0.00;;;13.40;99.90;;;;;;5088108;28;20305;-68
2021/06/14 03:16:48;;;;;;;0.00;0.00;;;13.30;99.90;;;;;;5088441;28;20195;-66
2021/06/14 03:19:20;;;;;;;0.00;0.00;;;13.30;99.90;;;;;;5090615;28;20255;-70
2021/06/14 03:21:47;;;;;;;0.00;0.00;;;13.20;99.90;;;;;;5087227;28;20201;-67
2021/06/14 03:24:16;;;;;;;0.00;0.00;;;13.30;99.90;;;;;;5088697;28;20233;-68
2021/06/14 03:26:46;;;;;;;0.00;0.00;;;13.20;99.90;;;;;;5089599;28;20194;-69
2021/06/14 03:29:19;;;;;;;0.00;0.00;;;13.30;99.90;;;;;;5091001;28;20198;-66
2021/06/14 03:31:47;;;;;;;0.07;0.07;;;13.20;99.90;;;;;;5087677;28;20258;-66
2021/06/14 03:34:15;;;;;;;0.00;0.00;;;13.30;99.90;;;;;;5088031;28;20623;-69
2021/06/14 03:36:42;;;;;;;0.00;0.00;;;13.30;99.90;;;;;;5087922;28;20221;-67
2021/06/14 03:39:10;;;;;;;0.00;0.00;;;13.30;99.90;;;;;;5087155;28;20202;-70
2021/06/14 03:41:42;;;;;;;0.00;0.00;;;13.20;99.90;;;;;;5086932;28;20201;-69
2021/06/14 03:44:10;;;;;;;0.00;0.00;;;13.20;99.90;;;;;;5086620;28;20190;-69
2021/06/14 03:46:38;;;;;;;0.00;0.00;;;13.20;99.90;;;;;;5089835;28;20247;-69
2021/06/14 03:49:05;;;;;;;0.00;0.00;;;13.20;99.90;;;;;;5087259;28;20254;-67
2021/06/14 03:51:33;;;;;;;0.00;0.00;;;13.20;99.90;;;;;;5087234;28;20562;-66
2021/06/14 03:54:00;;;;;;;0.00;0.00;;;13.10;99.90;;;;;;5089658;28;20306;-66
2021/06/14 03:56:29;;;;;;;0.00;0.00;;;13.10;99.90;;;;;;5086301;28;20221;-67
2021/06/14 03:58:56;;;;;;;0.00;0.00;;;13.20;99.90;;;;;;5088326;28;20194;-66
2021/06/14 04:01:25;;;;;;;0.00;0.00;;;13.20;99.90;;;;;;5086302;28;20203;-65
2021/06/14 04:04:07;;;;;;;0.00;0.00;;;13.30;99.90;;;;;;5086369;28;20310;-68
2021/06/14 04:06:34;;;;;;;0.00;0.00;;;13.40;99.90;;;;;;5093324;28;20286;-66
2021/06/14 04:09:01;;;;;;;0.00;0.00;;;13.40;99.90;;;;;;5089154;28;20567;-68
2021/06/14 04:11:28;;;;;;;0.00;0.00;;;13.50;99.90;;;;;;5087965;28;20210;-66
2021/06/14 04:13:55;;;;;;;0.00;0.00;;;13.60;99.90;;;;;;5088383;28;20198;-68
2021/06/14 04:16:24;;;;;;;0.00;0.00;;;13.70;99.90;;;;;;5085395;28;20236;-65
2021/06/14 04:18:51;;;;;;;0.00;0.00;;;13.80;99.90;;;;;;5086719;28;20234;-65
2021/06/14 04:21:19;;;;;;;0.00;0.00;;;13.90;99.90;;;;;;5086655;28;20198;-65
2021/06/14 04:23:46;;;;;;;0.00;0.00;;;14.00;99.90;;;;;;5085772;28;20226;-67
2021/06/14 04:26:13;;;;;;;0.00;0.00;;;14.00;99.90;;;;;;5088495;28;20262;-65
2021/06/14 04:28:41;;;;;;;0.73;0.73;;;14.10;99.90;;;;;;5086533;28;20206;-66
2021/06/14 04:31:08;;;;;;;0.27;0.27;;;14.20;99.90;;;;;;5085162;28;20198;-66
2021/06/14 04:33:37;;;;;;;0.00;0.00;;;14.30;99.90;;;;;;5086113;28;20227;-66
2021/06/14 04:36:05;;;;;;;0.00;0.00;;;14.50;99.90;;;;;;5090982;28;20277;-67
2021/06/14 04:38:32;;;;;;;0.00;0.00;;;14.60;99.90;;;;;;5085610;28;20663;-65
2021/06/14 04:40:59;;;;;;;0.00;0.00;;;14.70;99.90;;;;;;5087566;28;20198;-67
2021/06/14 04:43:26;;;;;;;0.00;0.00;;;14.80;99.90;;;;;;5087243;28;20255;-68
2021/06/14 04:45:53;;;;;;;0.00;0.00;;;15.00;99.90;;;;;;5085294;28;20226;-66
2021/06/14 04:48:20;;;;;;;0.00;0.00;;;15.20;99.90;;;;;;5088366;28;20279;-68
2021/06/14 04:50:49;;;;;;;0.00;0.00;;;15.30;99.90;;;;;;5085980;28;20263;-66
2021/06/14 04:53:16;;;;;;;0.00;0.00;;;15.40;99.90;;;;;;5087186;28;20199;-66
2021/06/14 04:55:43;;;;;;;0.00;0.00;;;15.60;99.90;;;;;;5087599;28;20238;-67
2021/06/14 04:58:10;;;;;;;0.00;0.00;;;15.80;99.90;;;;;;5086820;28;20208;-66
2021/06/14 05:00:37;;;;;;;0.00;0.00;;;15.90;99.90;;;;;;5087136;28;20643;-68
2021/06/14 05:03:05;;;;;;;0.00;0.00;;;16.10;99.90;;;;;;5085825;28;20330;-67
2021/06/14 05:05:33;;;;;;;0.00;0.00;;;16.20;99.90;;;;;;5086841;28;20205;-66
2021/06/14 05:08:01;;;;;;;0.00;0.00;;;16.40;99.90;;;;;;5087366;28;22286;-69
2021/06/14 05:10:29;;;;;;;0.00;0.00;;;16.50;99.90;;;;;;5089109;28;20260;-67
2021/06/14 05:12:55;;;;;;;0.00;0.00;;;16.70;99.90;;;;;;5090451;28;20289;-66
2021/06/14 05:15:23;;;;;;;0.00;0.00;;;16.80;99.90;;;;;;5091152;28;20221;-66
2021/06/14 05:17:49;;;;;;;0.00;0.00;;;17.00;99.90;;;;;;5090820;28;20222;-68
2021/06/14 05:20:17;;;;;;;0.00;0.00;;;17.20;99.90;;;;;;5091424;28;20194;-68
2021/06/14 05:22:45;;;;;;;0.00;0.00;;;17.30;99.90;;;;;;5089640;28;20194;-65
2021/06/14 05:25:14;;;;;;;0.00;0.00;;;17.50;99.90;;;;;;5089275;28;20603;-67
2021/06/14 05:27:41;;;;;;;0.00;0.00;;;17.70;99.90;;;;;;5091342;28;20750;-68
2021/06/14 05:30:10;;;;;;;0.00;0.00;;;17.90;99.90;;;;;;5089625;28;20613;-70
2021/06/14 05:32:38;;;;;;;0.00;0.00;;;18.10;99.90;;;;;;5090096;28;20321;-65
2021/06/14 05:35:06;;;;;;;0.00;0.00;;;18.30;99.90;;;;;;5093127;28;20201;-65
2021/06/14 05:37:33;;;;;;;0.00;0.00;;;18.40;99.90;;;;;;5089431;28;20847;-68
2021/06/14 05:40:01;;;;;;;0.00;0.00;;;18.60;99.90;;;;;;5090424;28;20209;-65
2021/06/14 05:42:29;;;;;;;0.00;0.00;;;18.80;99.90;;;;;;5089181;27;20558;-66
2021/06/14 05:44:56;;;;;;;0.00;0.00;;;19.00;99.90;;;;;;5088338;28;20198;-68
2021/06/14 05:47:23;;;;;;;0.00;0.00;;;19.30;99.90;;;;;;5090206;28;20254;-66
2021/06/14 05:49:50;;;;;;;0.00;0.00;;;19.50;99.90;;;;;;5084638;28;20194;-66
2021/06/14 05:52:17;;;;;;;0.80;0.80;;;19.80;99.90;;;;;;5087146;28;20742;-69
2021/06/14 05:54:45;;;;;;;0.00;0.00;;;20.20;99.90;;;;;;5090355;28;20234;-69
2021/06/14 05:57:11;;;;;;;0.00;0.00;;;20.50;99.90;;;;;;5090382;28;20234;-65
2021/06/14 05:59:40;;;;;;;0.00;0.00;;;21.00;99.90;;;;;;5089755;28;20202;-66
2021/06/14 06:02:08;;;;;;;0.20;0.20;;;21.50;99.90;;;;;;5089463;28;20206;-67
2021/06/14 06:04:35;;;;;;;0.00;0.00;;;22.40;99.90;;;;;;5088296;28;20191;-66
2021/06/14 06:07:02;;;;;;;0.00;0.00;;;23.50;99.90;;;;;;5089326;28;20202;-66
2021/06/14 06:09:29;;;;;;;0.00;0.00;;;24.80;99.90;;;;;;5090692;28;20206;-71
2021/06/14 06:11:56;;;;;;;0.00;0.00;;;26.00;99.90;;;;;;5088176;28;20331;-69
2021/06/14 06:14:23;;;;;;;0.00;0.00;;;27.00;99.90;;;;;;5090860;28;20202;-67
2021/06/14 06:16:52;;;;;;;1.75;0.35;;;27.90;99.90;;;;;;5087728;28;20226;-70
2021/06/14 06:19:20;;;;;;;0.00;0.00;;;28.50;99.90;;;;;;5090964;28;20650;-67
2021/06/14 06:21:47;;;;;;;0.00;0.00;;;29.40;99.90;;;;;;5087758;28;20193;-70
2021/06/14 06:24:14;;;;;;;0.00;0.00;;;30.00;99.90;;;;;;5087913;28;20205;-70
2021/06/14 06:26:41;;;;;;;0.00;0.00;;;30.60;99.90;;;;;;5088987;28;20197;-72
2021/06/14 06:29:08;;;;;;;0.00;0.00;;;31.10;99.90;;;;;;5088715;28;20205;-66
2021/06/14 06:31:35;;;;;;;0.00;0.00;;;31.50;99.90;;;;;;5087666;28;20616;-68
2021/06/14 06:34:04;;;;;;;0.00;0.00;;;31.80;99.90;;;;;;5093802;28;20236;-74
2021/06/14 06:36:31;;;;;;;0.00;0.00;;;32.10;99.90;;;;;;5086440;28;20703;-68
2021/06/14 06:38:58;;;;;;;0.00;0.00;;;32.20;99.90;;;;;;5089665;28;20205;-71
2021/06/14 06:41:25;;;;;;;0.10;0.10;;;32.60;99.90;;;;;;5090415;28;20235;-71
2021/06/14 06:43:52;;;;;;;0.10;0.10;;;32.70;99.90;;;;;;5087425;28;20432;-71
2021/06/14 06:46:19;;;;;;;0.00;0.00;;;32.70;99.90;;;;;;5087694;28;20202;-69
2021/06/14 06:48:46;;;;;;;0.55;0.55;;;33.00;99.90;;;;;;5089831;28;21748;-70
2021/06/14 06:51:14;;;;;;;0.00;0.00;;;33.20;99.90;;;;;;5090851;28;20202;-72
2021/06/14 06:53:41;;;;;;;0.00;0.00;;;33.40;99.90;;;;;;5087940;28;20202;-67
2021/06/14 06:56:08;;;;;;;0.00;0.00;;;33.50;99.90;;;;;;5087396;28;22182;-69
2021/06/14 06:58:35;;;;;;;0.00;0.00;;;33.40;99.90;;;;;;5085944;28;20255;-69
2021/06/14 07:01:02;;;;;;;0.00;0.00;;;33.70;99.90;;;;;;5084905;28;20920;-67
2021/06/14 07:03:29;;;;;;;0.00;0.00;;;33.90;99.90;;;;;;5088258;28;20625;-68
2021/06/14 07:05:56;;;;;;;0.00;0.00;;;34.00;99.90;;;;;;5086527;28;20253;-70
2021/06/14 07:08:25;;;;;;;2.05;1.55;;;34.00;99.90;;;;;;5085420;28;20972;-72
2021/06/14 07:10:52;;;;;;;0.00;0.00;;;34.00;99.90;;;;;;5088811;28;20247;-72
2021/06/14 07:13:19;;;;;;;0.00;0.00;;;34.10;99.90;;;;;;5087986;28;20202;-71
2021/06/14 07:15:46;;;;;;;0.00;0.00;;;34.20;99.90;;;;;;5087909;28;20197;-69
2021/06/14 07:18:13;;;;;;;0.20;0.20;;;34.20;99.90;;;;;;5089719;28;20198;-68
2021/06/14 07:20:40;;;;;;;0.00;0.00;;;34.40;99.90;;;;;;5088690;28;20218;-67
2021/06/14 07:23:07;;;;;;;0.00;0.00;;;34.20;99.90;;;;;;5086394;28;20201;-67
2021/06/14 07:25:36;;;;;;;0.00;0.00;;;34.20;99.90;;;;;;5089466;28;20209;-67
2021/06/14 07:28:03;;;;;;;0.05;0.05;;;34.30;99.90;;;;;;5085970;28;20201;-68
2021/06/14 07:30:32;;;;;;;0.00;0.00;;;34.20;99.90;;;;;;5083992;28;20243;-69
2021/06/14 07:32:59;;;;;;;0.20;0.00;;;34.50;99.90;;;;;;5088288;28;20210;-72
2021/06/14 07:35:26;;;;;;;0.30;0.30;;;34.30;99.90;;;;;;5087494;28;20258;-69
2021/06/14 07:37:53;;;;;;;0.47;0.47;;;33.90;99.90;;;;;;5085712;28;20230;-72
2021/06/14 07:40:20;;;;;;;0.00;0.00;;;33.80;99.90;;;;;;5085037;28;20205;-71
2021/06/14 07:42:48;;;;;;;0.00;0.00;;;33.90;99.90;;;;;;5086278;28;20209;-72
2021/06/14 07:45:21;;;;;;;0.00;0.00;;;33.70;99.90;;;;;;5086703;28;20198;-69
2021/06/14 07:47:48;;;;;;;0.00;0.00;;;34.00;99.90;;;;;;5088952;28;20352;-68
2021/06/14 07:50:15;;;;;;;0.00;0.00;;;34.50;99.90;;;;;;5087794;28;20247;-68
2021/06/14 07:52:42;;;;;;;0.10;0.10;;;34.80;99.90;;;;;;5087806;28;20205;-70
2021/06/14 07:55:11;;;;;;;0.40;0.38;;;34.90;99.90;;;;;;5086826;28;20719;-69
2021/06/14 07:57:38;;;;;;;3.70;2.58;;;34.90;99.90;;;;;;5088518;28;20222;-67
2021/06/14 08:00:08;;;;;;;0.25;0.25;;;35.00;99.90;;;;;;5085431;28;20205;-68
2021/06/14 08:02:36;;;;;;;0.22;0.17;;;35.10;99.90;;;;;;5087262;28;20202;-69
2021/06/14 08:05:05;;;;;;;0.00;0.00;;;34.90;99.90;;;;;;5089256;28;20229;-70
2021/06/14 08:07:33;;;;;;;0.10;0.10;;;35.00;99.90;;;;;;5088731;28;20197;-67
2021/06/14 08:10:02;;;;;;;0.00;0.00;;;34.80;99.90;;;;;;5086834;28;20209;-69
2021/06/14 08:12:30;;;;;;;0.00;0.00;;;34.90;99.90;;;;;;5088381;28;21208;-69
2021/06/14 08:14:57;;;;;;;0.00;0.00;;;35.00;99.90;;;;;;5087636;28;20282;-68
2021/06/14 08:17:27;;;;;;;0.00;0.00;;;35.10;99.90;;;;;;5085715;28;21143;-71
2021/06/14 08:19:58;;;;;;;0.47;0.47;;;35.10;98.70;;;;;;5085670;28;20198;-69
2021/06/14 08:22:38;;;;;;;0.00;0.00;;;35.40;96.80;;;;;;5088562;28;20190;-68
2021/06/14 08:25:05;;;;;;;0.00;0.00;;;35.20;95.80;;;;;;5086365;28;22393;-67
2021/06/14 08:27:34;;;;;;;0.93;0.88;;;35.50;96.40;;;;;;5087565;28;20202;-70
2021/06/14 08:30:01;;;;;;;0.47;0.47;;;35.90;93.00;;;;;;5085461;28;20935;-65
2021/06/14 08:32:30;;;;;;;0.00;0.00;;;35.50;91.70;;;;;;5086570;28;20209;-68
2021/06/14 08:34:57;;;;;;;0.10;0.10;;;35.20;90.10;;;;;;5086523;28;20197;-70
2021/06/14 08:37:24;;;;;;;0.00;0.00;;;35.20;90.10;;;;;;5086845;28;20287;-71
2021/06/14 08:39:51;;;;;;;0.20;0.20;;;35.30;89.20;;;;;;5088570;28;20668;-67
2021/06/14 08:42:19;;;;;;;0.00;0.00;;;35.30;88.50;;;;;;5084661;28;20221;-67
2021/06/14 08:44:47;;;;;;;0.20;0.20;;;35.30;87.00;;;;;;5089993;28;20197;-66
2021/06/14 08:47:14;;;;;;;0.17;0.17;;;35.20;85.00;;;;;;5090767;28;20258;-66
2021/06/14 08:49:44;;;;;;;0.00;0.00;;;35.00;85.40;;;;;;5089806;28;20556;-67
2021/06/14 08:52:12;;;;;;;0.00;0.00;;;35.00;84.10;;;;;;5091301;28;20236;-66
2021/06/14 08:54:43;;;;;;;0.10;0.10;;;35.10;82.00;;;;;;5089107;28;20279;-70
2021/06/14 08:57:10;;;;;;;0.03;0.00;;;35.20;77.50;;;;;;5093261;28;20690;-68
2021/06/14 08:59:37;;;;;;;0.20;0.20;;;35.10;78.90;;;;;;5088946;28;20239;-68
2021/06/14 09:02:05;;;;;;;0.00;0.00;;;35.10;75.90;;;;;;5088930;28;20208;-68
2021/06/14 09:04:32;;;;;;;2.42;1.45;;;35.20;77.10;;;;;;5088915;28;20606;-66
2021/06/14 09:07:01;;;;;;;0.25;0.20;;;35.20;75.60;;;;;;5090080;28;20213;-69
2021/06/14 09:09:30;;;;;;;0.15;0.15;;;35.00;76.10;;;;;;5091580;28;20224;-68
2021/06/14 09:11:58;;;;;;;0.03;0.03;;;34.80;76.80;;;;;;5092495;28;20190;-66
2021/06/14 09:14:27;;;;;;;0.10;0.10;;;34.50;75.90;;;;;;5092645;28;20198;-68
2021/06/14 09:16:58;;;;;;;0.57;0.28;;;34.50;78.80;;;;;;5089497;28;20295;-66
2021/06/14 09:19:30;;;;;;;0.00;0.00;;;34.60;79.70;;;;;;5090722;28;20668;-67
2021/06/14 09:22:12;;;;;;;0.00;0.00;;;34.80;74.90;;;;;;5088712;28;20202;-65
2021/06/14 09:24:39;;;;;;;0.00;0.00;;;34.70;74.80;;;;;;5089221;28;20203;-65
2021/06/14 09:27:06;;;;;;;0.00;0.00;;;34.70;80.00;;;;;;5092498;28;20202;-67
2021/06/14 09:29:33;;;;;;;0.10;0.10;;;34.60;74.10;;;;;;5086111;28;20202;-67
2021/06/14 09:32:02;;;;;;;0.00;0.00;;;34.80;75.20;;;;;;5089499;28;20218;-66
2021/06/14 09:34:35;;;;;;;0.00;0.00;;;34.70;75.40;;;;;;5088884;28;20777;-67
2021/06/14 09:37:04;;;;;;;0.20;0.20;;;34.40;74.70;;;;;;5089481;28;20216;-66
2021/06/14 09:39:41;;;;;;;0.00;0.00;;;34.30;76.40;;;;;;5091286;28;20202;-66
2021/06/14 09:42:17;;;;;;;0.22;0.10;;;34.20;74.00;;;;;;5088591;28;20194;-68
2021/06/14 09:44:45;;;;;;;0.28;0.28;;;34.20;73.10;;;;;;5091446;28;20201;-70
2021/06/14 09:47:13;;;;;;;0.00;0.00;;;34.00;72.00;;;;;;5086460;28;20978;-63
2021/06/14 09:49:41;;;;;;;0.28;0.28;;;33.80;67.80;;;;;;5088924;28;20206;-67
2021/06/14 09:52:21;;;;;;;0.00;0.00;;;33.40;70.10;;;;;;5091535;28;20896;-66
2021/06/14 09:54:50;;;;;;;0.85;0.85;;;33.00;71.80;;;;;;5088453;28;20242;-70
2021/06/14 09:57:26;;;;;;;0.20;0.20;;;33.00;76.10;;;;;;5093598;28;20247;-72
2021/06/14 09:59:53;;;;;;;0.00;0.00;;;33.10;72.60;;;;;;5095658;28;20194;-70
2021/06/14 10:02:20;;;;;;;0.00;0.00;;;33.10;72.20;;;;;;5086932;28;20245;-72
2021/06/14 10:04:51;;;;;;;0.00;0.00;;;32.90;67.90;;;;;;5088494;28;20529;-68
2021/06/14 10:07:20;;;;;;;0.13;0.13;;;32.40;71.40;;;;;;5089666;28;20209;-68
2021/06/14 10:09:49;;;;;;;0.00;0.00;;;32.50;72.30;;;;;;5088877;28;20202;-70
2021/06/14 10:12:19;;;;;;;0.00;0.00;;;32.60;75.80;;;;;;5088745;28;20204;-68
2021/06/14 10:14:50;;;;;;;0.00;0.00;;;32.60;71.30;;;;;;5090024;28;20203;-76
2021/06/14 10:17:31;;;;;;;0.32;0.22;;;32.60;73.60;;;;;;5087266;28;20230;-71
2021/06/14 10:20:12;;;;;;;0.17;0.17;;;32.40;69.60;;;;;;5088438;28;20674;-67
2021/06/14 10:22:40;;;;;;;1.45;1.35;;;32.30;70.20;;;;;;5090563;28;20197;-70
2021/06/14 10:25:08;;;;;;;0.00;0.00;;;32.40;71.20;;;;;;5093017;28;20243;-66
2021/06/14 10:27:37;;;;;;;0.00;0.00;;;32.20;69.60;;;;;;5089202;28;20225;-70
2021/06/14 10:30:05;;;;;;;0.00;0.00;;;31.90;69.00;;;;;;5087921;28;20732;-73
2021/06/14 10:32:33;;;;;;;0.00;0.00;;;31.70;69.00;;;;;;5086227;28;20197;-69
2021/06/14 10:35:01;;;;;;;0.00;0.00;;;31.30;69.30;;;;;;5090035;28;20217;-65
2021/06/14 10:37:28;;;;;;;0.00;0.00;;;31.00;68.90;;;;;;5088899;28;20256;-68
2021/06/14 10:39:56;;;;;;;0.00;0.00;;;31.10;70.50;;;;;;5088472;28;20247;-75
2021/06/14 10:42:24;;;;;;;0.00;0.00;;;31.00;72.00;;;;;;5087839;28;21056;-71
2021/06/14 10:44:52;;;;;;;0.00;0.00;;;31.10;74.30;;;;;;5088458;28;20202;-66
2021/06/14 10:47:20;;;;;;;0.00;0.00;;;31.20;74.10;;;;;;5089463;28;20195;-64
2021/06/14 10:49:53;;;;;;;0.10;0.10;;;31.20;75.60;;;;;;5089809;28;20552;-66
2021/06/14 10:52:20;;;;;;;0.00;0.00;;;31.30;74.70;;;;;;5105225;28;20200;-66
2021/06/14 10:54:47;;;;;;;0.22;0.22;;;31.30;72.70;;;;;;5098717;28;20232;-66
2021/06/14 10:57:15;;;;;;;0.00;0.00;;;31.20;73.50;;;;;;5095452;28;20218;-65
2021/06/14 10:59:43;;;;;;;0.15;0.15;;;31.30;76.20;;;;;;5100289;28;20606;-67
2021/06/14 11:02:13;;;;;;;0.13;0.13;;;31.30;72.00;;;;;;5103911;28;20274;-68
2021/06/14 11:04:42;;;;;;;0.00;0.00;;;31.30;74.80;;;;;;5111991;28;20242;-66
2021/06/14 11:07:09;;;;;;;0.00;0.00;;;31.30;73.60;;;;;;5099930;28;20663;-66
2021/06/14 11:09:41;;;;;;;0.00;0.00;;;31.20;74.50;;;;;;5096277;28;20651;-65
2021/06/14 11:12:10;;;;;;;0.70;0.52;;;31.30;76.80;;;;;;5093510;28;20198;-66
2021/06/14 11:14:39;;;;;;;0.43;0.43;;;31.50;73.70;;;;;;5108844;28;20209;-64
2021/06/14 11:17:26;;;;;;;0.00;0.00;;;31.60;75.10;;;;;;5095485;28;20205;-64
2021/06/14 11:20:07;;;;;;;0.10;0.10;;;31.70;71.00;;;;;;5094126;28;20206;-68
2021/06/14 11:22:36;;;;;;;0.00;0.00;;;31.70;71.90;;;;;;5104404;28;20201;-66
2021/06/14 11:25:16;;;;;;;0.00;0.00;;;31.60;74.80;;;;;;5103854;28;20962;-64
2021/06/14 11:27:43;;;;;;;0.00;0.00;;;31.90;76.70;;;;;;5104029;28;20193;-70
2021/06/14 11:30:14;;;;;;;0.08;0.08;;;31.90;75.60;;;;;;5106615;28;20221;-68
2021/06/14 11:32:42;;;;;;;0.05;0.05;;;31.90;73.50;;;;;;5097266;28;20659;-64
2021/06/14 11:35:10;;;;;;;0.40;0.40;;;31.80;74.50;;;;;;5095096;28;20655;-69
2021/06/14 11:37:39;;;;;;;0.10;0.10;;;32.00;76.00;;;;;;5101685;28;20225;-67
2021/06/14 11:40:10;;;;;;;0.80;0.10;;;32.10;73.10;;;;;;5095067;28;20194;-69
2021/06/14 11:42:46;;;;;;;0.22;0.22;;;32.30;76.50;;;;;;5094370;28;20198;-63
2021/06/14 11:45:26;;;;;;;0.00;0.00;;;32.20;71.60;;;;;;5100142;28;20200;-68
2021/06/14 11:47:55;;;;;;;0.00;0.00;;;32.30;74.40;;;;;;5109275;28;20221;-68
2021/06/14 11:50:23;;;;;;;0.60;0.10;;;32.40;77.60;;;;;;5109573;28;20699;-62
2021/06/14 11:52:58;;;;;;;1.80;1.77;;;32.50;74.50;;;;;;5102614;28;20198;-66
2021/06/14 11:55:27;;;;;;;0.05;0.05;;;32.70;76.80;;;;;;5099622;28;20316;-65
2021/06/14 11:57:57;;;;;;;0.00;0.00;;;32.60;72.20;;;;;;5100825;28;20324;-67
2021/06/14 12:00:29;;;;;;;0.00;0.00;;;32.50;74.20;;;;;;5099726;28;20202;-71
2021/06/14 12:02:58;;;;;;;0.00;0.00;;;32.30;77.90;;;;;;5106554;28;20197;-66
2021/06/14 12:05:32;;;;;;;0.43;0.10;;;32.30;73.00;;;;;;5102004;28;20197;-68
2021/06/14 12:07:59;;;;;;;0.00;0.00;;;32.40;73.80;;;;;;5105990;28;20193;-66
2021/06/14 12:10:27;;;;;;;0.00;0.00;;;32.50;75.20;;;;;;5094411;28;20201;-66
2021/06/14 12:13:05;;;;;;;0.00;0.00;;;32.50;72.60;;;;;;5099323;28;20194;-66
2021/06/14 12:15:32;;;;;;;0.30;0.30;;;32.60;76.20;;;;;;5108373;28;20206;-66
2021/06/14 12:18:01;;;;;;;0.63;0.63;;;32.40;74.70;;;;;;5102198;28;20253;-68
2021/06/14 12:20:30;;;;;;;0.15;0.08;;;32.20;76.50;;;;;;5095658;28;20193;-67
2021/06/14 12:23:02;;;;;;;0.00;0.00;;;32.20;77.20;;;;;;5092712;28;20216;-66
2021/06/14 12:25:30;;;;;;;2.38;1.55;;;32.50;77.80;;;;;;5094035;28;20559;-66
2021/06/14 12:28:01;;;;;;;0.00;0.00;;;32.60;77.80;;;;;;5098377;28;20651;-67
2021/06/14 12:30:28;;;;;;;0.00;0.00;;;32.70;78.70;;;;;;5101394;28;20608;-66
2021/06/14 12:32:56;;;;;;;1.08;0.98;;;32.60;76.90;;;;;;5093010;28;20263;-66
2021/06/14 12:35:25;;;;;;;0.00;0.00;;;32.80;76.40;;;;;;5101798;28;20543;-67
2021/06/14 12:37:52;;;;;;;0.20;0.20;;;33.00;79.20;;;;;;5090361;28;20225;-67
2021/06/14 12:40:22;;;;;;;0.00;0.00;;;33.20;79.20;;;;;;5092045;28;20212;-68
2021/06/14 12:42:57;;;;;;;0.00;0.00;;;33.10;76.20;;;;;;5093445;28;20252;-66
2021/06/14 12:45:25;;;;;;;0.20;0.20;;;33.30;79.50;;;;;;5096759;28;20197;-67
2021/06/14 12:47:54;;;;;;;0.00;0.00;;;33.20;74.50;;;;;;5094062;28;20255;-67
2021/06/14 12:50:25;;;;;;;0.00;0.00;;;33.20;76.50;;;;;;5100358;28;20229;-66
2021/06/14 12:52:52;;;;;;;0.00;0.00;;;33.30;83.30;;;;;;5105426;28;20195;-67
2021/06/14 12:55:21;;;;;;;0.00;0.00;;;33.10;78.10;;;;;;5095987;28;20652;-66